Aguas de Lindoia, Brazil
Current Conditions -  °F | °C
As of 12:00 PM on Wednesday 22 Oct 2014 (Local Time) from SBKP Reporting Station
Few Clouds Few Clouds  
Wind Chill: 77°   Ceiling: Unl
Heat Index: 79°   Visibility: 6mi
Dew Point: 55°   Wind: 15mph
Humidity: 47%   Direction: 150°SSE
Pressure: 30.15"   Gusts: NA
Location:  22.48°S, 46.63°W
Report Text: SBKP 221400Z 15013KT 9999 FEW040 25/13 Q1021
Loading
Personal Weather Stations






























Interactive Weather Map
Tropical Storm Tracking
New forecast layout! Learn more

10-Day Weather Forecast

Advertisements
Track Severe Weather on mobile